Liberty, Pennsylvania
Current Conditions -  °F | °C
As of 4:15 AM on Wednesday 22 Oct 2014 (Local Time) from KN38 Reporting Station
Light Rain Light Rain  
Wind Chill: 37°   Ceiling: 400
Heat Index: 45°   Visibility: 1mi
Dew Point: 45°   Wind: 16mph
Humidity: 100%   Direction: 360°N
Pressure: 30.01"   Gusts: NA
Location:  41.56°N, 77.1°W
Report Text: KN38 220815Z AUTO 36014KT 1SM -RA OVC004 07/07 A3001 RMK AO2
Loading
Personal Weather Stations






























Interactive Weather Map
Tropical Storm Tracking
New forecast layout! Learn more

10-Day Weather Forecast

Advertisements
Track Severe Weather on mobile